ESPA/LLA METAR and TAF weather

Enter ICAO airport designator
Station Type Date Time Source
ESPA METAR 2018/01/24 07:20 UTC NOAA

ESPA 240720Z 13009KT 070V170 1500 SN BKN005 M09/M10 Q0998


Station Type Date Time Source
ESPA Decoded METAR 2018/01/24 07:20 UTC NOAA

Lulea / Kallax, Sweden (ESPA) 65-33N 022-08E 34M
Jan 24, 2018 - 02:20 AM EST / 2018.01.24 0720 UTC
Wind: from the SE (130 degrees) at 10 MPH (9 KT) (direction variable):0
Visibility: less than 1 mile:0
Sky conditions: mostly cloudy
Weather: snow
Temperature: 15 F (-9 C)
Windchill: 3 F (-16 C):1
Dew Point: 14 F (-10 C)
Relative Humidity: 92%
Pressure (altimeter): 29.47 in. Hg (0998 hPa)
ob: ESPA 240720Z 13009KT 070V170 1500 SN BKN005 M09/M10 Q0998
cycle: 7

Station Type Date Time Source
ESPA TAF 2017/09/16 02:00 UTC NOAA

TAF ESPA 160200 160400/160412 35008KT 9999 BKN007 PROB40 1604/1609 BKN012
TEMPO 1609/1612 BKN015


Example: see airport list